sensor_id;sensor_type;location;lat;lon;timestamp;P1;durP1;ratioP1;P2;durP2;ratioP2
57441;SDS011;43284;47.042;15.498;2024-02-21T00:00:32;5.07;;;2.38;;
57441;SDS011;43284;47.042;15.498;2024-02-21T00:02:58;6.85;;;2.15;;
57441;SDS011;43284;47.042;15.498;2024-02-21T00:05:24;4.25;;;2.25;;
57441;SDS011;43284;47.042;15.498;2024-02-21T00:07:50;7.03;;;2.80;;
57441;SDS011;43284;47.042;15.498;2024-02-21T00:10:15;7.95;;;2.70;;
57441;SDS011;43284;47.042;15.498;2024-02-21T00:12:40;5.30;;;1.75;;
57441;SDS011;43284;47.042;15.498;2024-02-21T00:15:06;5.05;;;2.40;;
57441;SDS011;43284;47.042;15.498;2024-02-21T00:17:32;5.63;;;2.10;;
57441;SDS011;43284;47.042;15.498;2024-02-21T00:19:57;3.03;;;1.88;;
57441;SDS011;43284;47.042;15.498;2024-02-21T00:22:23;4.60;;;2.22;;
57441;SDS011;43284;47.042;15.498;2024-02-21T00:24:49;5.95;;;2.20;;
57441;SDS011;43284;47.042;15.498;2024-02-21T00:27:15;6.32;;;2.08;;
57441;SDS011;43284;47.042;15.498;2024-02-21T00:29:40;6.72;;;2.38;;
57441;SDS011;43284;47.042;15.498;2024-02-21T00:32:06;9.10;;;2.30;;
57441;SDS011;43284;47.042;15.498;2024-02-21T00:34:31;5.65;;;2.33;;
57441;SDS011;43284;47.042;15.498;2024-02-21T00:36:57;4.68;;;2.58;;
57441;SDS011;43284;47.042;15.498;2024-02-21T00:39:26;10.00;;;2.63;;
57441;SDS011;43284;47.042;15.498;2024-02-21T00:41:51;6.93;;;3.00;;
57441;SDS011;43284;47.042;15.498;2024-02-21T00:44:17;10.20;;;2.63;;
57441;SDS011;43284;47.042;15.498;2024-02-21T00:46:42;7.28;;;2.45;;
57441;SDS011;43284;47.042;15.498;2024-02-21T00:49:08;4.90;;;1.98;;
57441;SDS011;43284;47.042;15.498;2024-02-21T00:51:33;3.95;;;2.05;;
57441;SDS011;43284;47.042;15.498;2024-02-21T00:53:59;4.05;;;2.13;;
57441;SDS011;43284;47.042;15.498;2024-02-21T00:56:24;4.65;;;2.13;;
57441;SDS011;43284;47.042;15.498;2024-02-21T00:58:50;3.78;;;2.13;;
57441;SDS011;43284;47.042;15.498;2024-02-21T01:01:22;4.63;;;1.90;;
57441;SDS011;43284;47.042;15.498;2024-02-21T01:03:49;5.32;;;1.90;;
57441;SDS011;43284;47.042;15.498;2024-02-21T01:06:14;4.78;;;1.88;;
57441;SDS011;43284;47.042;15.498;2024-02-21T01:08:40;5.57;;;2.88;;
57441;SDS011;43284;47.042;15.498;2024-02-21T01:11:05;5.60;;;1.95;;
57441;SDS011;43284;47.042;15.498;2024-02-21T01:13:31;4.97;;;1.77;;
57441;SDS011;43284;47.042;15.498;2024-02-21T01:15:56;5.90;;;1.88;;
57441;SDS011;43284;47.042;15.498;2024-02-21T01:18:22;6.28;;;2.08;;
57441;SDS011;43284;47.042;15.498;2024-02-21T01:20:47;8.55;;;2.22;;
57441;SDS011;43284;47.042;15.498;2024-02-21T01:23:13;5.40;;;2.42;;
57441;SDS011;43284;47.042;15.498;2024-02-21T01:25:39;8.40;;;2.28;;
57441;SDS011;43284;47.042;15.498;2024-02-21T01:28:04;4.25;;;2.00;;
57441;SDS011;43284;47.042;15.498;2024-02-21T01:30:30;7.07;;;2.75;;
57441;SDS011;43284;47.042;15.498;2024-02-21T01:33:00;5.68;;;2.40;;
57441;SDS011;43284;47.042;15.498;2024-02-21T01:35:25;7.38;;;2.33;;
57441;SDS011;43284;47.042;15.498;2024-02-21T01:37:51;7.15;;;2.92;;
57441;SDS011;43284;47.042;15.498;2024-02-21T01:40:16;5.90;;;2.25;;
57441;SDS011;43284;47.042;15.498;2024-02-21T01:42:42;8.25;;;2.63;;
57441;SDS011;43284;47.042;15.498;2024-02-21T01:45:08;5.10;;;2.42;;
57441;SDS011;43284;47.042;15.498;2024-02-21T01:47:34;9.98;;;2.55;;
57441;SDS011;43284;47.042;15.498;2024-02-21T01:50:01;3.95;;;2.10;;
57441;SDS011;43284;47.042;15.498;2024-02-21T01:52:28;6.70;;;2.40;;
57441;SDS011;43284;47.042;15.498;2024-02-21T01:54:54;7.68;;;2.42;;
57441;SDS011;43284;47.042;15.498;2024-02-21T01:57:20;5.03;;;2.33;;
57441;SDS011;43284;47.042;15.498;2024-02-21T01:59:47;3.47;;;1.63;;
57441;SDS011;43284;47.042;15.498;2024-02-21T02:02:12;6.28;;;2.17;;
57441;SDS011;43284;47.042;15.498;2024-02-21T02:04:38;4.95;;;2.10;;
57441;SDS011;43284;47.042;15.498;2024-02-21T02:07:04;5.35;;;2.80;;
57441;SDS011;43284;47.042;15.498;2024-02-21T02:09:32;4.85;;;2.03;;
57441;SDS011;43284;47.042;15.498;2024-02-21T02:11:58;5.28;;;2.55;;
57441;SDS011;43284;47.042;15.498;2024-02-21T02:14:24;6.07;;;2.28;;
57441;SDS011;43284;47.042;15.498;2024-02-21T02:16:50;6.97;;;1.95;;
57441;SDS011;43284;47.042;15.498;2024-02-21T02:19:16;4.82;;;2.72;;
57441;SDS011;43284;47.042;15.498;2024-02-21T02:21:42;5.20;;;2.33;;
57441;SDS011;43284;47.042;15.498;2024-02-21T02:24:20;8.30;;;2.53;;
57441;SDS011;43284;47.042;15.498;2024-02-21T02:26:49;5.57;;;2.22;;
57441;SDS011;43284;47.042;15.498;2024-02-21T02:29:14;6.60;;;2.53;;
57441;SDS011;43284;47.042;15.498;2024-02-21T02:31:40;6.75;;;2.40;;
57441;SDS011;43284;47.042;15.498;2024-02-21T02:34:05;3.65;;;2.58;;
57441;SDS011;43284;47.042;15.498;2024-02-21T02:36:34;5.35;;;2.15;;
57441;SDS011;43284;47.042;15.498;2024-02-21T02:39:00;6.85;;;3.22;;
57441;SDS011;43284;47.042;15.498;2024-02-21T02:41:26;6.43;;;2.70;;
57441;SDS011;43284;47.042;15.498;2024-02-21T02:43:51;6.43;;;2.58;;
57441;SDS011;43284;47.042;15.498;2024-02-21T02:46:17;6.60;;;1.88;;
57441;SDS011;43284;47.042;15.498;2024-02-21T02:48:42;8.27;;;2.63;;
57441;SDS011;43284;47.042;15.498;2024-02-21T02:51:08;8.27;;;3.05;;
57441;SDS011;43284;47.042;15.498;2024-02-21T02:53:34;7.07;;;2.90;;
57441;SDS011;43284;47.042;15.498;2024-02-21T02:55:59;5.95;;;2.83;;
57441;SDS011;43284;47.042;15.498;2024-02-21T02:58:24;4.90;;;2.55;;
57441;SDS011;43284;47.042;15.498;2024-02-21T03:00:50;8.05;;;2.97;;
57441;SDS011;43284;47.042;15.498;2024-02-21T03:03:16;6.88;;;2.78;;
57441;SDS011;43284;47.042;15.498;2024-02-21T03:05:43;6.20;;;2.42;;
57441;SDS011;43284;47.042;15.498;2024-02-21T03:08:09;9.00;;;3.83;;
57441;SDS011;43284;47.042;15.498;2024-02-21T03:10:34;10.57;;;3.67;;
57441;SDS011;43284;47.042;15.498;2024-02-21T03:13:00;9.27;;;3.25;;
57441;SDS011;43284;47.042;15.498;2024-02-21T03:15:26;6.88;;;3.13;;
57441;SDS011;43284;47.042;15.498;2024-02-21T03:17:51;7.07;;;3.15;;
57441;SDS011;43284;47.042;15.498;2024-02-21T03:20:17;6.45;;;2.72;;
57441;SDS011;43284;47.042;15.498;2024-02-21T03:22:44;10.73;;;3.25;;
57441;SDS011;43284;47.042;15.498;2024-02-21T03:25:10;7.00;;;2.65;;
57441;SDS011;43284;47.042;15.498;2024-02-21T03:27:37;7.63;;;3.05;;
57441;SDS011;43284;47.042;15.498;2024-02-21T03:30:03;6.78;;;2.92;;
57441;SDS011;43284;47.042;15.498;2024-02-21T03:32:29;8.30;;;3.35;;
57441;SDS011;43284;47.042;15.498;2024-02-21T03:34:55;10.90;;;2.85;;
57441;SDS011;43284;47.042;15.498;2024-02-21T03:37:21;7.20;;;3.05;;
57441;SDS011;43284;47.042;15.498;2024-02-21T03:39:52;5.95;;;2.90;;
57441;SDS011;43284;47.042;15.498;2024-02-21T03:42:18;7.03;;;3.20;;
57441;SDS011;43284;47.042;15.498;2024-02-21T03:44:43;15.15;;;2.95;;
57441;SDS011;43284;47.042;15.498;2024-02-21T03:47:09;4.40;;;2.20;;
57441;SDS011;43284;47.042;15.498;2024-02-21T03:49:36;7.00;;;2.72;;
57441;SDS011;43284;47.042;15.498;2024-02-21T03:52:02;5.15;;;2.78;;
57441;SDS011;43284;47.042;15.498;2024-02-21T03:54:28;8.60;;;2.63;;
57441;SDS011;43284;47.042;15.498;2024-02-21T03:56:56;8.02;;;2.88;;
57441;SDS011;43284;47.042;15.498;2024-02-21T03:59:22;6.72;;;2.80;;
57441;SDS011;43284;47.042;15.498;2024-02-21T04:01:51;8.93;;;2.75;;
57441;SDS011;43284;47.042;15.498;2024-02-21T04:04:22;6.38;;;2.90;;
57441;SDS011;43284;47.042;15.498;2024-02-21T04:06:48;10.98;;;3.03;;
57441;SDS011;43284;47.042;15.498;2024-02-21T04:09:20;7.10;;;2.70;;
57441;SDS011;43284;47.042;15.498;2024-02-21T04:11:45;5.30;;;2.75;;
57441;SDS011;43284;47.042;15.498;2024-02-21T04:14:13;5.68;;;2.90;;
57441;SDS011;43284;47.042;15.498;2024-02-21T04:16:39;6.10;;;2.30;;
57441;SDS011;43284;47.042;15.498;2024-02-21T04:19:05;7.75;;;2.60;;
57441;SDS011;43284;47.042;15.498;2024-02-21T04:21:30;5.13;;;2.65;;
57441;SDS011;43284;47.042;15.498;2024-02-21T04:23:56;12.05;;;2.85;;
57441;SDS011;43284;47.042;15.498;2024-02-21T04:26:21;5.97;;;2.83;;
57441;SDS011;43284;47.042;15.498;2024-02-21T04:28:47;3.95;;;1.95;;
57441;SDS011;43284;47.042;15.498;2024-02-21T04:31:12;5.30;;;2.17;;
57441;SDS011;43284;47.042;15.498;2024-02-21T04:33:38;6.70;;;2.00;;
57441;SDS011;43284;47.042;15.498;2024-02-21T04:36:03;5.80;;;2.90;;
57441;SDS011;43284;47.042;15.498;2024-02-21T04:38:30;5.53;;;2.88;;
57441;SDS011;43284;47.042;15.498;2024-02-21T04:40:55;9.48;;;2.42;;
57441;SDS011;43284;47.042;15.498;2024-02-21T04:43:23;3.83;;;1.98;;
57441;SDS011;43284;47.042;15.498;2024-02-21T04:45:50;7.22;;;2.50;;
57441;SDS011;43284;47.042;15.498;2024-02-21T04:48:16;4.57;;;2.40;;
57441;SDS011;43284;47.042;15.498;2024-02-21T04:50:41;4.97;;;2.85;;
57441;SDS011;43284;47.042;15.498;2024-02-21T04:53:07;6.18;;;2.60;;
57441;SDS011;43284;47.042;15.498;2024-02-21T04:55:33;8.13;;;2.10;;
57441;SDS011;43284;47.042;15.498;2024-02-21T04:57:58;5.18;;;2.13;;
57441;SDS011;43284;47.042;15.498;2024-02-21T05:00:26;4.97;;;2.13;;
57441;SDS011;43284;47.042;15.498;2024-02-21T05:02:54;6.78;;;2.08;;
57441;SDS011;43284;47.042;15.498;2024-02-21T05:05:20;3.28;;;1.90;;
57441;SDS011;43284;47.042;15.498;2024-02-21T05:07:45;4.28;;;2.17;;
57441;SDS011;43284;47.042;15.498;2024-02-21T05:10:11;4.25;;;2.13;;
57441;SDS011;43284;47.042;15.498;2024-02-21T05:12:37;5.47;;;2.08;;
57441;SDS011;43284;47.042;15.498;2024-02-21T05:15:03;3.95;;;1.80;;
57441;SDS011;43284;47.042;15.498;2024-02-21T05:17:29;8.20;;;2.80;;
57441;SDS011;43284;47.042;15.498;2024-02-21T05:19:54;3.05;;;1.60;;
57441;SDS011;43284;47.042;15.498;2024-02-21T05:22:20;6.63;;;2.08;;
57441;SDS011;43284;47.042;15.498;2024-02-21T05:24:45;5.18;;;1.98;;
57441;SDS011;43284;47.042;15.498;2024-02-21T05:27:11;6.10;;;2.13;;
57441;SDS011;43284;47.042;15.498;2024-02-21T05:29:37;5.90;;;1.92;;
57441;SDS011;43284;47.042;15.498;2024-02-21T05:32:02;3.47;;;1.73;;
57441;SDS011;43284;47.042;15.498;2024-02-21T05:34:28;5.38;;;2.28;;
57441;SDS011;43284;47.042;15.498;2024-02-21T05:36:54;5.78;;;1.90;;
57441;SDS011;43284;47.042;15.498;2024-02-21T05:39:19;4.07;;;1.65;;
57441;SDS011;43284;47.042;15.498;2024-02-21T05:41:47;3.85;;;1.60;;
57441;SDS011;43284;47.042;15.498;2024-02-21T05:44:14;2.53;;;1.75;;
57441;SDS011;43284;47.042;15.498;2024-02-21T05:46:40;8.50;;;1.88;;
57441;SDS011;43284;47.042;15.498;2024-02-21T05:49:06;3.42;;;1.88;;
57441;SDS011;43284;47.042;15.498;2024-02-21T05:51:34;9.05;;;3.55;;
57441;SDS011;43284;47.042;15.498;2024-02-21T05:54:00;10.00;;;2.95;;
57441;SDS011;43284;47.042;15.498;2024-02-21T05:56:26;4.72;;;2.10;;
57441;SDS011;43284;47.042;15.498;2024-02-21T05:58:52;10.25;;;1.90;;
57441;SDS011;43284;47.042;15.498;2024-02-21T06:01:17;3.80;;;1.80;;
57441;SDS011;43284;47.042;15.498;2024-02-21T06:03:43;4.82;;;1.67;;
57441;SDS011;43284;47.042;15.498;2024-02-21T06:06:10;2.28;;;1.38;;
57441;SDS011;43284;47.042;15.498;2024-02-21T06:08:36;4.18;;;1.50;;
57441;SDS011;43284;47.042;15.498;2024-02-21T06:11:02;2.63;;;1.58;;
57441;SDS011;43284;47.042;15.498;2024-02-21T06:13:27;4.25;;;1.98;;
57441;SDS011;43284;47.042;15.498;2024-02-21T06:15:53;2.85;;;1.63;;
57441;SDS011;43284;47.042;15.498;2024-02-21T06:18:18;4.25;;;1.50;;
57441;SDS011;43284;47.042;15.498;2024-02-21T06:20:45;3.85;;;1.77;;
57441;SDS011;43284;47.042;15.498;2024-02-21T06:23:15;7.57;;;1.85;;
57441;SDS011;43284;47.042;15.498;2024-02-21T06:25:42;8.43;;;1.92;;
57441;SDS011;43284;47.042;15.498;2024-02-21T06:28:07;4.15;;;1.48;;
57441;SDS011;43284;47.042;15.498;2024-02-21T06:30:33;4.57;;;1.70;;
57441;SDS011;43284;47.042;15.498;2024-02-21T06:33:01;3.85;;;1.75;;
57441;SDS011;43284;47.042;15.498;2024-02-21T06:35:28;3.75;;;1.45;;
57441;SDS011;43284;47.042;15.498;2024-02-21T06:37:53;4.80;;;1.88;;
57441;SDS011;43284;47.042;15.498;2024-02-21T06:40:20;6.10;;;1.27;;
57441;SDS011;43284;47.042;15.498;2024-02-21T06:42:47;5.90;;;1.63;;
57441;SDS011;43284;47.042;15.498;2024-02-21T06:45:16;5.22;;;1.38;;
57441;SDS011;43284;47.042;15.498;2024-02-21T06:47:44;4.65;;;1.80;;
57441;SDS011;43284;47.042;15.498;2024-02-21T06:50:10;4.85;;;1.42;;
57441;SDS011;43284;47.042;15.498;2024-02-21T06:52:36;4.13;;;1.70;;
57441;SDS011;43284;47.042;15.498;2024-02-21T06:55:01;2.58;;;1.35;;
57441;SDS011;43284;47.042;15.498;2024-02-21T06:57:28;2.85;;;1.35;;
57441;SDS011;43284;47.042;15.498;2024-02-21T06:59:54;4.03;;;1.73;;
57441;SDS011;43284;47.042;15.498;2024-02-21T07:02:20;4.45;;;1.70;;
57441;SDS011;43284;47.042;15.498;2024-02-21T07:04:45;3.28;;;1.73;;
57441;SDS011;43284;47.042;15.498;2024-02-21T07:07:11;3.70;;;1.58;;
57441;SDS011;43284;47.042;15.498;2024-02-21T07:09:36;5.05;;;1.98;;
57441;SDS011;43284;47.042;15.498;2024-02-21T07:12:02;6.15;;;1.58;;
57441;SDS011;43284;47.042;15.498;2024-02-21T07:14:35;4.53;;;1.63;;
57441;SDS011;43284;47.042;15.498;2024-02-21T07:17:01;8.30;;;1.58;;
57441;SDS011;43284;47.042;15.498;2024-02-21T07:19:26;6.25;;;2.25;;
57441;SDS011;43284;47.042;15.498;2024-02-21T07:21:52;8.63;;;3.22;;
57441;SDS011;43284;47.042;15.498;2024-02-21T07:24:18;7.68;;;3.42;;
57441;SDS011;43284;47.042;15.498;2024-02-21T07:26:43;10.35;;;3.03;;
57441;SDS011;43284;47.042;15.498;2024-02-21T07:29:09;9.38;;;2.90;;
57441;SDS011;43284;47.042;15.498;2024-02-21T07:31:41;7.72;;;2.92;;
57441;SDS011;43284;47.042;15.498;2024-02-21T07:34:10;10.75;;;3.75;;
57441;SDS011;43284;47.042;15.498;2024-02-21T07:36:35;13.05;;;3.60;;
57441;SDS011;43284;47.042;15.498;2024-02-21T07:39:03;6.70;;;2.55;;
57441;SDS011;43284;47.042;15.498;2024-02-21T07:41:37;7.68;;;2.83;;
57441;SDS011;43284;47.042;15.498;2024-02-21T07:44:04;7.85;;;2.78;;
57441;SDS011;43284;47.042;15.498;2024-02-21T07:46:30;7.50;;;2.72;;
57441;SDS011;43284;47.042;15.498;2024-02-21T07:48:55;8.52;;;2.97;;
57441;SDS011;43284;47.042;15.498;2024-02-21T07:51:21;6.97;;;2.28;;
57441;SDS011;43284;47.042;15.498;2024-02-21T07:53:46;7.63;;;2.40;;
57441;SDS011;43284;47.042;15.498;2024-02-21T07:56:14;5.40;;;1.95;;
57441;SDS011;43284;47.042;15.498;2024-02-21T07:58:40;11.43;;;3.00;;
57441;SDS011;43284;47.042;15.498;2024-02-21T08:01:06;10.98;;;3.28;;
57441;SDS011;43284;47.042;15.498;2024-02-21T08:03:32;9.55;;;3.38;;
57441;SDS011;43284;47.042;15.498;2024-02-21T08:05:57;8.18;;;2.95;;
57441;SDS011;43284;47.042;15.498;2024-02-21T08:08:23;4.70;;;2.50;;
57441;SDS011;43284;47.042;15.498;2024-02-21T08:10:52;10.30;;;2.50;;
57441;SDS011;43284;47.042;15.498;2024-02-21T08:13:18;4.65;;;2.10;;
57441;SDS011;43284;47.042;15.498;2024-02-21T08:15:43;4.97;;;2.00;;
57441;SDS011;43284;47.042;15.498;2024-02-21T08:18:09;5.43;;;2.00;;
57441;SDS011;43284;47.042;15.498;2024-02-21T08:20:35;3.10;;;1.83;;
57441;SDS011;43284;47.042;15.498;2024-02-21T08:23:00;5.25;;;2.25;;
57441;SDS011;43284;47.042;15.498;2024-02-21T08:25:26;4.57;;;1.88;;
57441;SDS011;43284;47.042;15.498;2024-02-21T08:27:55;3.72;;;1.55;;
57441;SDS011;43284;47.042;15.498;2024-02-21T08:30:23;6.72;;;1.80;;
57441;SDS011;43284;47.042;15.498;2024-02-21T08:32:51;3.35;;;1.90;;
57441;SDS011;43284;47.042;15.498;2024-02-21T08:35:19;7.40;;;1.08;;
57441;SDS011;43284;47.042;15.498;2024-02-21T08:37:47;3.88;;;1.80;;
57441;SDS011;43284;47.042;15.498;2024-02-21T08:40:13;6.20;;;1.40;;
57441;SDS011;43284;47.042;15.498;2024-02-21T08:42:42;4.68;;;1.55;;
57441;SDS011;43284;47.042;15.498;2024-02-21T08:45:08;5.55;;;1.27;;
57441;SDS011;43284;47.042;15.498;2024-02-21T08:47:34;5.65;;;1.73;;
57441;SDS011;43284;47.042;15.498;2024-02-21T08:50:03;3.60;;;1.50;;
57441;SDS011;43284;47.042;15.498;2024-02-21T08:52:29;3.35;;;1.65;;
57441;SDS011;43284;47.042;15.498;2024-02-21T08:54:54;4.70;;;1.52;;
57441;SDS011;43284;47.042;15.498;2024-02-21T08:57:23;6.72;;;1.50;;
57441;SDS011;43284;47.042;15.498;2024-02-21T08:59:48;3.10;;;1.60;;
57441;SDS011;43284;47.042;15.498;2024-02-21T09:02:14;8.10;;;1.85;;
57441;SDS011;43284;47.042;15.498;2024-02-21T09:04:41;2.60;;;1.50;;
57441;SDS011;43284;47.042;15.498;2024-02-21T09:07:08;3.63;;;1.70;;
57441;SDS011;43284;47.042;15.498;2024-02-21T09:09:34;6.78;;;1.70;;
57441;SDS011;43284;47.042;15.498;2024-02-21T09:12:00;3.35;;;1.73;;
57441;SDS011;43284;47.042;15.498;2024-02-21T09:14:33;4.10;;;1.67;;
57441;SDS011;43284;47.042;15.498;2024-02-21T09:17:05;9.05;;;1.95;;
57441;SDS011;43284;47.042;15.498;2024-02-21T09:19:31;8.30;;;1.95;;
57441;SDS011;43284;47.042;15.498;2024-02-21T09:21:56;4.45;;;1.92;;
57441;SDS011;43284;47.042;15.498;2024-02-21T09:24:22;5.05;;;2.03;;
57441;SDS011;43284;47.042;15.498;2024-02-21T09:26:47;6.85;;;1.98;;
57441;SDS011;43284;47.042;15.498;2024-02-21T09:29:13;5.88;;;1.70;;
57441;SDS011;43284;47.042;15.498;2024-02-21T09:31:40;11.05;;;2.53;;
57441;SDS011;43284;47.042;15.498;2024-02-21T09:34:07;5.43;;;2.30;;
57441;SDS011;43284;47.042;15.498;2024-02-21T09:36:32;4.40;;;2.40;;
57441;SDS011;43284;47.042;15.498;2024-02-21T09:38:58;4.63;;;1.63;;
57441;SDS011;43284;47.042;15.498;2024-02-21T09:41:27;6.82;;;2.30;;
57441;SDS011;43284;47.042;15.498;2024-02-21T09:43:52;5.00;;;1.85;;
57441;SDS011;43284;47.042;15.498;2024-02-21T09:46:19;2.97;;;1.90;;
57441;SDS011;43284;47.042;15.498;2024-02-21T09:51:34;4.88;;;1.92;;
57441;SDS011;43284;47.042;15.498;2024-02-21T09:54:01;7.72;;;1.98;;
57441;SDS011;43284;47.042;15.498;2024-02-21T09:56:31;3.03;;;1.75;;
57441;SDS011;43284;47.042;15.498;2024-02-21T09:58:57;8.38;;;1.92;;
57441;SDS011;43284;47.042;15.498;2024-02-21T10:01:23;5.20;;;1.88;;
57441;SDS011;43284;47.042;15.498;2024-02-21T10:03:49;6.57;;;1.55;;
57441;SDS011;43284;47.042;15.498;2024-02-21T10:06:14;3.55;;;1.98;;
57441;SDS011;43284;47.042;15.498;2024-02-21T10:08:40;4.18;;;1.83;;
57441;SDS011;43284;47.042;15.498;2024-02-21T10:11:06;5.85;;;2.75;;
57441;SDS011;43284;47.042;15.498;2024-02-21T10:13:34;4.47;;;1.90;;
57441;SDS011;43284;47.042;15.498;2024-02-21T10:16:09;4.45;;;1.80;;
57441;SDS011;43284;47.042;15.498;2024-02-21T10:18:35;4.35;;;1.70;;
57441;SDS011;43284;47.042;15.498;2024-02-21T10:21:01;4.55;;;1.88;;
57441;SDS011;43284;47.042;15.498;2024-02-21T10:23:26;3.95;;;1.80;;
57441;SDS011;43284;47.042;15.498;2024-02-21T10:25:52;4.95;;;1.70;;
57441;SDS011;43284;47.042;15.498;2024-02-21T10:28:18;7.35;;;2.17;;
57441;SDS011;43284;47.042;15.498;2024-02-21T10:30:51;3.15;;;1.70;;
57441;SDS011;43284;47.042;15.498;2024-02-21T10:33:17;8.75;;;2.45;;
57441;SDS011;43284;47.042;15.498;2024-02-21T10:35:45;4.97;;;2.22;;
57441;SDS011;43284;47.042;15.498;2024-02-21T10:38:12;11.73;;;2.30;;
57441;SDS011;43284;47.042;15.498;2024-02-21T10:40:38;9.38;;;3.10;;
57441;SDS011;43284;47.042;15.498;2024-02-21T10:43:03;11.95;;;2.35;;
57441;SDS011;43284;47.042;15.498;2024-02-21T10:45:34;5.10;;;1.58;;
57441;SDS011;43284;47.042;15.498;2024-02-21T10:48:14;5.60;;;1.85;;
57441;SDS011;43284;47.042;15.498;2024-02-21T10:59:03;4.70;;;1.60;;
57441;SDS011;43284;47.042;15.498;2024-02-21T11:01:30;3.20;;;1.70;;
57441;SDS011;43284;47.042;15.498;2024-02-21T11:04:03;5.40;;;2.00;;
57441;SDS011;43284;47.042;15.498;2024-02-21T11:06:37;4.30;;;1.88;;
57441;SDS011;43284;47.042;15.498;2024-02-21T11:09:07;6.43;;;1.85;;
57441;SDS011;43284;47.042;15.498;2024-02-21T11:11:38;4.47;;;1.95;;
57441;SDS011;43284;47.042;15.498;2024-02-21T11:14:05;5.25;;;1.90;;
57441;SDS011;43284;47.042;15.498;2024-02-21T11:16:43;3.22;;;1.48;;
57441;SDS011;43284;47.042;15.498;2024-02-21T11:19:09;3.92;;;1.58;;
57441;SDS011;43284;47.042;15.498;2024-02-21T11:21:44;6.47;;;2.10;;
57441;SDS011;43284;47.042;15.498;2024-02-21T11:26:55;4.38;;;1.48;;
57441;SDS011;43284;47.042;15.498;2024-02-21T11:29:33;5.30;;;1.83;;
57441;SDS011;43284;47.042;15.498;2024-02-21T11:32:06;6.13;;;1.42;;
57441;SDS011;43284;47.042;15.498;2024-02-21T11:34:35;2.75;;;1.23;;
57441;SDS011;43284;47.042;15.498;2024-02-21T11:37:21;6.70;;;1.50;;
57441;SDS011;43284;47.042;15.498;2024-02-21T11:39:52;3.17;;;1.30;;
57441;SDS011;43284;47.042;15.498;2024-02-21T11:42:20;1.63;;;1.13;;
57441;SDS011;43284;47.042;15.498;2024-02-21T11:44:45;3.00;;;1.30;;
57441;SDS011;43284;47.042;15.498;2024-02-21T11:47:11;4.18;;;1.30;;
57441;SDS011;43284;47.042;15.498;2024-02-21T11:49:38;13.88;;;1.60;;
57441;SDS011;43284;47.042;15.498;2024-02-21T11:52:15;7.18;;;1.35;;
57441;SDS011;43284;47.042;15.498;2024-02-21T11:54:43;3.17;;;1.42;;
57441;SDS011;43284;47.042;15.498;2024-02-21T11:57:12;6.80;;;1.15;;
57441;SDS011;43284;47.042;15.498;2024-02-21T11:59:39;2.80;;;0.93;;
57441;SDS011;43284;47.042;15.498;2024-02-21T12:02:05;2.00;;;1.55;;
57441;SDS011;43284;47.042;15.498;2024-02-21T12:04:31;5.28;;;1.20;;
57441;SDS011;43284;47.042;15.498;2024-02-21T12:06:57;3.40;;;1.20;;
57441;SDS011;43284;47.042;15.498;2024-02-21T12:09:23;1.42;;;0.85;;
57441;SDS011;43284;47.042;15.498;2024-02-21T12:12:25;2.25;;;1.08;;
57441;SDS011;43284;47.042;15.498;2024-02-21T12:14:53;5.70;;;1.30;;
57441;SDS011;43284;47.042;15.498;2024-02-21T12:17:25;5.55;;;1.30;;
57441;SDS011;43284;47.042;15.498;2024-02-21T12:19:51;2.58;;;1.00;;
57441;SDS011;43284;47.042;15.498;2024-02-21T12:22:18;1.98;;;1.02;;
57441;SDS011;43284;47.042;15.498;2024-02-21T12:24:43;2.35;;;0.90;;
57441;SDS011;43284;47.042;15.498;2024-02-21T12:27:12;3.38;;;1.10;;
57441;SDS011;43284;47.042;15.498;2024-02-21T12:29:39;4.03;;;1.15;;
57441;SDS011;43284;47.042;15.498;2024-02-21T12:32:04;2.38;;;1.00;;
57441;SDS011;43284;47.042;15.498;2024-02-21T12:34:30;2.42;;;1.00;;
57441;SDS011;43284;47.042;15.498;2024-02-21T12:36:58;3.10;;;1.13;;
57441;SDS011;43284;47.042;15.498;2024-02-21T12:39:24;1.75;;;1.10;;
57441;SDS011;43284;47.042;15.498;2024-02-21T12:41:49;1.55;;;1.30;;
57441;SDS011;43284;47.042;15.498;2024-02-21T12:44:15;1.35;;;0.73;;
57441;SDS011;43284;47.042;15.498;2024-02-21T12:46:42;3.33;;;1.10;;
57441;SDS011;43284;47.042;15.498;2024-02-21T12:49:10;1.48;;;0.93;;
57441;SDS011;43284;47.042;15.498;2024-02-21T12:51:36;4.22;;;1.58;;
57441;SDS011;43284;47.042;15.498;2024-02-21T12:54:03;2.28;;;1.00;;
57441;SDS011;43284;47.042;15.498;2024-02-21T12:56:28;1.27;;;0.88;;
57441;SDS011;43284;47.042;15.498;2024-02-21T12:59:03;2.75;;;1.10;;
57441;SDS011;43284;47.042;15.498;2024-02-21T13:01:28;4.13;;;1.15;;
57441;SDS011;43284;47.042;15.498;2024-02-21T13:03:54;3.05;;;1.13;;
57441;SDS011;43284;47.042;15.498;2024-02-21T13:06:20;1.85;;;1.10;;
57441;SDS011;43284;47.042;15.498;2024-02-21T13:08:46;2.47;;;1.20;;
57441;SDS011;43284;47.042;15.498;2024-02-21T13:11:15;2.65;;;1.25;;
57441;SDS011;43284;47.042;15.498;2024-02-21T13:13:41;4.00;;;1.30;;
57441;SDS011;43284;47.042;15.498;2024-02-21T13:16:09;2.65;;;1.23;;
57441;SDS011;43284;47.042;15.498;2024-02-21T13:18:35;1.60;;;0.90;;
57441;SDS011;43284;47.042;15.498;2024-02-21T13:21:03;3.05;;;1.00;;
57441;SDS011;43284;47.042;15.498;2024-02-21T13:23:29;3.70;;;1.10;;
57441;SDS011;43284;47.042;15.498;2024-02-21T13:25:55;1.70;;;1.00;;
57441;SDS011;43284;47.042;15.498;2024-02-21T13:28:20;1.08;;;0.90;;
57441;SDS011;43284;47.042;15.498;2024-02-21T13:30:46;3.72;;;1.08;;
57441;SDS011;43284;47.042;15.498;2024-02-21T13:33:11;1.88;;;0.80;;
57441;SDS011;43284;47.042;15.498;2024-02-21T13:35:38;0.90;;;0.77;;
57441;SDS011;43284;47.042;15.498;2024-02-21T13:38:04;1.52;;;0.95;;
57441;SDS011;43284;47.042;15.498;2024-02-21T13:40:30;1.70;;;0.75;;
57441;SDS011;43284;47.042;15.498;2024-02-21T13:42:55;6.28;;;1.30;;
57441;SDS011;43284;47.042;15.498;2024-02-21T13:45:21;4.55;;;1.00;;
57441;SDS011;43284;47.042;15.498;2024-02-21T13:47:46;3.92;;;1.02;;
57441;SDS011;43284;47.042;15.498;2024-02-21T13:50:13;2.05;;;0.80;;
57441;SDS011;43284;47.042;15.498;2024-02-21T13:52:39;3.83;;;1.10;;
57441;SDS011;43284;47.042;15.498;2024-02-21T13:55:05;3.38;;;1.00;;
57441;SDS011;43284;47.042;15.498;2024-02-21T13:57:34;2.22;;;1.20;;
57441;SDS011;43284;47.042;15.498;2024-02-21T14:00:00;1.60;;;0.70;;
57441;SDS011;43284;47.042;15.498;2024-02-21T14:02:26;2.60;;;0.82;;
57441;SDS011;43284;47.042;15.498;2024-02-21T14:04:57;2.58;;;0.80;;
57441;SDS011;43284;47.042;15.498;2024-02-21T14:07:23;1.90;;;0.95;;
57441;SDS011;43284;47.042;15.498;2024-02-21T14:09:48;2.35;;;0.90;;
57441;SDS011;43284;47.042;15.498;2024-02-21T14:12:15;2.05;;;1.10;;
57441;SDS011;43284;47.042;15.498;2024-02-21T14:14:43;2.08;;;0.90;;
57441;SDS011;43284;47.042;15.498;2024-02-21T14:17:09;1.38;;;0.88;;
57441;SDS011;43284;47.042;15.498;2024-02-21T14:19:34;3.38;;;1.23;;
57441;SDS011;43284;47.042;15.498;2024-02-21T14:22:00;5.15;;;2.47;;
57441;SDS011;43284;47.042;15.498;2024-02-21T14:24:27;8.98;;;1.60;;
57441;SDS011;43284;47.042;15.498;2024-02-21T14:26:52;2.67;;;1.05;;
57441;SDS011;43284;47.042;15.498;2024-02-21T14:29:18;3.28;;;1.20;;
57441;SDS011;43284;47.042;15.498;2024-02-21T14:31:44;6.03;;;0.98;;
57441;SDS011;43284;47.042;15.498;2024-02-21T14:34:09;4.97;;;1.42;;
57441;SDS011;43284;47.042;15.498;2024-02-21T14:36:35;2.35;;;1.55;;
57441;SDS011;43284;47.042;15.498;2024-02-21T14:39:01;2.30;;;0.95;;
57441;SDS011;43284;47.042;15.498;2024-02-21T14:41:27;7.85;;;1.52;;
57441;SDS011;43284;47.042;15.498;2024-02-21T14:43:55;3.53;;;0.85;;